Time;durP1;ratioP1;P1;durP2;ratioP2;P2;SDS_P1;SDS_P2;PMS_P1;PMS_P2;Temp;Humidity;BMP_temperature;BMP_pressure;BME280_temperature;BME280_humidity;BME280_pressure;Samples;Min_cycle;Max_cycle;Signal;HPM_P1;HPM_P2
2024/02/17 00:00:19;;;;;;;;;;;;;;;4.83;81.29;99977.38;5033051;28;19933;-72
2024/02/17 00:02:46;;;;;;;;;;;;;;;4.83;81.22;99974.78;5032997;28;20267;-73
2024/02/17 00:05:14;;;;;;;;;;;;;;;4.84;81.29;99986.88;5033149;28;19925;-73
2024/02/17 00:07:40;;;;;;;;;;;;;;;4.84;81.57;99989.47;5033160;28;19925;-72
2024/02/17 00:10:07;;;;;;;;;;;;;;;4.83;81.33;99987.75;5032994;28;19925;-73
2024/02/17 00:12:34;;;;;;;;;;;;;;;4.83;81.23;99998.13;5032881;28;19925;-72
2024/02/17 00:15:02;;;;;;;;;;;;;;;4.83;81.36;99995.53;5023924;28;20003;-73
2024/02/17 00:17:28;;;;;;;;;;;;;;;4.82;81.45;99996.41;5013121;28;19930;-72
2024/02/17 00:19:55;;;;;;;;;;;;;;;4.83;81.18;100005.88;5013163;28;19926;-73
2024/02/17 00:22:23;;;;;;;;;;;;;;;4.81;81.28;100011.09;5013368;28;19933;-73
2024/02/17 00:24:49;;;;;;;;;;;;;;;4.81;81.17;100010.25;5016893;28;19926;-72
2024/02/17 00:27:16;;;;;;;;;;;;;;;4.80;81.49;100001.59;5016932;28;19929;-73
2024/02/17 00:29:42;;;;;;;;;;;;;;;4.80;81.09;100016.28;5016949;28;19925;-72
2024/02/17 00:32:09;;;;;;;;;;;;;;;4.79;81.41;100017.19;5016868;28;19925;-72
2024/02/17 00:34:36;;;;;;;;;;;;;;;4.79;81.43;100019.78;5016979;28;20298;-73
2024/02/17 00:37:02;;;;;;;;;;;;;;;4.77;81.21;100019.78;5016923;28;20386;-73
2024/02/17 00:39:30;;;;;;;;;;;;;;;4.77;81.24;100031.88;5016678;28;19925;-73
2024/02/17 00:41:57;;;;;;;;;;;;;;;4.75;81.28;100039.69;5016705;28;19925;-73
2024/02/17 00:44:24;;;;;;;;;;;;;;;4.76;81.24;100040.53;5016975;28;19931;-73
2024/02/17 00:46:50;;;;;;;;;;;;;;;4.73;81.05;100041.41;5016638;28;20329;-73
2024/02/17 00:49:17;;;;;;;;;;;;;;;4.71;81.13;100053.53;5016491;28;19929;-73
2024/02/17 00:51:43;;;;;;;;;;;;;;;4.72;81.10;100059.56;5016595;28;20386;-73
2024/02/17 00:54:10;;;;;;;;;;;;;;;4.70;81.20;100062.19;5016389;28;19925;-72
2024/02/17 00:56:38;;;;;;;;;;;;;;;4.68;81.04;100083.81;5016322;28;20390;-73
2024/02/17 00:59:05;;;;;;;;;;;;;;;4.63;81.07;100095.09;5016451;28;20301;-72
2024/02/17 01:01:31;;;;;;;;;;;;;;;4.60;80.97;100114.97;5016703;28;19933;-72
2024/02/17 01:03:58;;;;;;;;;;;;;;;4.53;80.96;100115.91;5016327;28;19931;-73
2024/02/17 01:06:25;;;;;;;;;;;;;;;4.46;80.77;100128.03;5016253;28;19929;-73
2024/02/17 01:08:51;;;;;;;;;;;;;;;4.41;80.41;100145.34;5016334;28;19932;-77
2024/02/17 01:11:18;;;;;;;;;;;;;;;4.36;80.60;100150.56;5016227;28;19926;-77
2024/02/17 01:13:46;;;;;;;;;;;;;;;4.31;80.22;100161.81;5016313;28;19926;-76
2024/02/17 01:16:13;;;;;;;;;;;;;;;4.26;80.17;100171.34;5015915;28;19940;-76
2024/02/17 01:18:39;;;;;;;;;;;;;;;4.19;80.27;100192.09;5027349;28;19967;-77
2024/02/17 01:21:06;;;;;;;;;;;;;;;4.13;80.03;100193.88;5035721;28;19929;-77
2024/02/17 01:23:33;;;;;;;;;;;;;;;4.06;79.76;100208.56;5035802;28;20298;-76
2024/02/17 01:25:59;;;;;;;;;;;;;;;4.01;79.59;100219.81;5035667;28;19932;-77
2024/02/17 01:28:26;;;;;;;;;;;;;;;3.95;79.67;100231.03;5035637;28;19978;-76
2024/02/17 01:30:54;;;;;;;;;;;;;;;3.88;79.57;100237.97;5035536;28;19931;-77
2024/02/17 01:33:20;;;;;;;;;;;;;;;3.83;79.49;100244.03;5035223;28;20313;-76
2024/02/17 01:35:47;;;;;;;;;;;;;;;3.78;79.43;100250.94;5035477;28;19925;-76
2024/02/17 01:38:14;;;;;;;;;;;;;;;3.71;79.44;100265.63;5035545;28;20287;-78
2024/02/17 01:40:41;;;;;;;;;;;;;;;3.65;79.34;100279.44;5035625;28;19932;-77
2024/02/17 01:43:08;;;;;;;;;;;;;;;3.58;79.07;100282.94;5035524;28;19925;-78
2024/02/17 01:45:35;;;;;;;;;;;;;;;3.53;79.16;100294.16;5035604;28;19935;-78
2024/02/17 01:48:04;;;;;;;;;;;;;;;3.45;79.23;100307.94;5035632;28;19929;-77
2024/02/17 01:50:30;;;;;;;;;;;;;;;3.39;78.85;100320.03;5035186;28;19925;-78
2024/02/17 01:52:58;;;;;;;;;;;;;;;3.33;78.83;100327.78;5035337;28;19931;-78
2024/02/17 01:55:25;;;;;;;;;;;;;;;3.26;78.75;100343.28;5035060;28;19925;-77
2024/02/17 01:57:51;;;;;;;;;;;;;;;3.20;78.72;100351.03;5035442;28;19931;-77
2024/02/17 02:00:19;;;;;;;;;;;;;;;3.16;78.73;100357.06;5018463;28;19926;-78
2024/02/17 02:02:46;;;;;;;;;;;;;;;3.11;78.72;100356.19;5015399;28;19932;-78
2024/02/17 02:05:14;;;;;;;;;;;;;;;3.08;78.68;100356.19;5030108;28;19929;-77
2024/02/17 02:07:41;;;;;;;;;;;;;;;3.02;78.95;100357.06;5035240;28;19932;-78
2024/02/17 02:10:08;;;;;;;;;;;;;;;2.98;78.75;100368.22;5035047;28;19947;-77
2024/02/17 02:12:35;;;;;;;;;;;;;;;2.93;78.77;100369.09;5035055;28;20314;-78
2024/02/17 02:15:05;;;;;;;;;;;;;;;2.89;78.89;100380.28;5022223;28;19933;-77
2024/02/17 02:17:32;;;;;;;;;;;;;;;2.85;78.89;100384.59;5015084;28;19932;-73
2024/02/17 02:19:59;;;;;;;;;;;;;;;2.81;78.95;100386.31;5014927;28;20503;-76
2024/02/17 02:22:27;;;;;;;;;;;;;;;2.76;78.86;100390.59;5014988;28;19925;-77
2024/02/17 02:24:55;;;;;;;;;;;;;;;2.71;78.60;100394.88;5014971;28;19931;-77
2024/02/17 02:27:23;;;;;;;;;;;;;;;2.67;78.98;100403.47;5014813;28;19929;-76
2024/02/17 02:29:52;;;;;;;;;;;;;;;2.63;78.82;100406.03;5014629;28;19932;-76
2024/02/17 02:32:18;;;;;;;;;;;;;;;2.57;78.88;100415.47;5014631;28;19929;-76
2024/02/17 02:34:47;;;;;;;;;;;;;;;2.53;78.85;100421.50;5020665;28;19925;-76
2024/02/17 02:37:14;;;;;;;;;;;;;;;2.49;78.89;100426.63;5034219;28;19929;-76
2024/02/17 02:39:40;;;;;;;;;;;;;;;2.46;78.87;100439.53;5034633;28;20298;-76
2024/02/17 02:42:07;;;;;;;;;;;;;;;2.40;78.97;100445.53;5034022;28;19925;-76
2024/02/17 02:44:35;;;;;;;;;;;;;;;2.37;78.89;100464.44;5034474;28;20282;-76
2024/02/17 02:47:02;;;;;;;;;;;;;;;2.33;78.80;100469.56;5033491;28;19931;-76
2024/02/17 02:49:28;;;;;;;;;;;;;;;2.29;78.83;100468.69;5034065;28;19925;-73
2024/02/17 02:51:55;;;;;;;;;;;;;;;2.25;79.02;100485.03;5034148;28;19931;-74
2024/02/17 02:54:22;;;;;;;;;;;;;;;2.22;78.89;100492.75;5033963;28;19926;-74
2024/02/17 02:56:48;;;;;;;;;;;;;;;2.19;78.98;100502.16;5034128;28;19935;-74
2024/02/17 02:59:15;;;;;;;;;;;;;;;2.16;79.14;100508.19;5033844;28;19926;-74
2024/02/17 03:01:43;;;;;;;;;;;;;;;2.13;79.04;100514.19;5033766;28;20267;-75
2024/02/17 03:04:09;;;;;;;;;;;;;;;2.10;79.12;100513.28;5033782;28;20012;-74
2024/02/17 03:06:37;;;;;;;;;;;;;;;2.08;78.91;100517.59;5033572;28;19931;-74
2024/02/17 03:09:03;;;;;;;;;;;;;;;2.05;79.08;100533.91;5033744;28;19925;-73
2024/02/17 03:11:30;;;;;;;;;;;;;;;2.03;79.09;100542.50;5033678;28;19929;-74
2024/02/17 03:13:56;;;;;;;;;;;;;;;2.00;79.14;100537.31;5033529;28;20309;-74
2024/02/17 03:16:24;;;;;;;;;;;;;;;1.97;78.98;100545.88;5033657;28;20358;-74
2024/02/17 03:18:52;;;;;;;;;;;;;;;1.95;78.94;100554.44;5033583;28;19931;-74
2024/02/17 03:21:18;;;;;;;;;;;;;;;1.91;78.98;100549.28;5033464;28;19936;-74
2024/02/17 03:23:46;;;;;;;;;;;;;;;1.89;79.17;100558.69;5033420;28;19935;-74
2024/02/17 03:26:12;;;;;;;;;;;;;;;1.88;79.41;100554.41;5033878;28;20283;-74
2024/02/17 03:28:39;;;;;;;;;;;;;;;1.85;78.99;100564.69;5033400;28;19939;-73
2024/02/17 03:31:06;;;;;;;;;;;;;;;1.82;79.18;100572.41;5033334;28;19936;-73
2024/02/17 03:33:32;;;;;;;;;;;;;;;1.80;79.10;100581.84;5033309;28;20306;-73
2024/02/17 03:36:00;;;;;;;;;;;;;;;1.77;79.27;100593.84;5033392;28;19975;-73
2024/02/17 03:38:27;;;;;;;;;;;;;;;1.74;79.21;100597.25;5033316;28;20279;-73
2024/02/17 03:40:54;;;;;;;;;;;;;;;1.72;78.94;100592.94;5033195;28;19925;-73
2024/02/17 03:43:20;;;;;;;;;;;;;;;1.69;79.37;100602.34;5033263;28;19931;-73
2024/02/17 03:45:47;;;;;;;;;;;;;;;1.67;79.04;100604.03;5033224;28;20294;-73
2024/02/17 03:48:13;;;;;;;;;;;;;;;1.65;79.38;100610.91;5033368;28;19932;-73
2024/02/17 03:50:40;;;;;;;;;;;;;;;1.64;79.28;100605.72;5033024;28;20297;-73
2024/02/17 03:53:08;;;;;;;;;;;;;;;1.63;79.14;100606.59;5033328;28;19925;-73
2024/02/17 03:55:35;;;;;;;;;;;;;;;1.60;79.31;100615.16;5033080;28;19936;-73
2024/02/17 03:58:01;;;;;;;;;;;;;;;1.59;79.14;100616.00;5038164;28;20306;-73
2024/02/17 04:00:28;;;;;;;;;;;;;;;1.58;79.29;100618.56;5039915;28;19925;-73
2024/02/17 04:02:55;;;;;;;;;;;;;;;1.57;79.45;100620.28;5039604;28;19936;-73
2024/02/17 04:05:21;;;;;;;;;;;;;;;1.54;79.14;100635.72;5039499;28;19925;-73
2024/02/17 04:07:48;;;;;;;;;;;;;;;1.53;79.35;100640.84;5039444;28;20040;-73
2024/02/17 04:10:16;;;;;;;;;;;;;;;1.50;79.19;100638.22;5039733;28;20298;-73
2024/02/17 04:12:43;;;;;;;;;;;;;;;1.48;79.13;100653.69;5039735;28;19925;-73
2024/02/17 04:15:10;;;;;;;;;;;;;;;1.45;79.59;100664.81;5022359;28;19935;-73
2024/02/17 04:17:36;;;;;;;;;;;;;;;1.43;79.20;100661.34;5019997;28;19932;-73
2024/02/17 04:20:03;;;;;;;;;;;;;;;1.42;79.67;100672.53;5019797;28;19926;-73
2024/02/17 04:22:30;;;;;;;;;;;;;;;1.41;79.65;100670.78;5037086;28;19926;-73
2024/02/17 04:24:57;;;;;;;;;;;;;;;1.41;79.60;100675.94;5039412;28;19931;-73
2024/02/17 04:27:25;;;;;;;;;;;;;;;1.38;79.43;100678.47;5039569;28;19925;-73
2024/02/17 04:29:51;;;;;;;;;;;;;;;1.37;79.64;100687.06;5039669;28;19933;-73
2024/02/17 04:32:18;;;;;;;;;;;;;;;1.35;79.49;100699.06;5039259;28;20266;-73
2024/02/17 04:34:44;;;;;;;;;;;;;;;1.34;79.69;100707.66;5039124;28;19939;-73
2024/02/17 04:37:11;;;;;;;;;;;;;;;1.32;79.33;100714.47;5039231;28;20382;-73
2024/02/17 04:39:38;;;;;;;;;;;;;;;1.31;79.43;100717.91;5039370;28;19931;-77
2024/02/17 04:42:04;;;;;;;;;;;;;;;1.30;79.59;100729.03;5039395;28;20401;-76
2024/02/17 04:44:32;;;;;;;;;;;;;;;1.30;79.52;100735.91;5039428;28;19925;-77
2024/02/17 04:46:59;;;;;;;;;;;;;;;1.28;79.79;100748.81;5039227;28;19925;-76
2024/02/17 04:49:26;;;;;;;;;;;;;;;1.29;79.46;100747.09;5039137;28;20016;-76
2024/02/17 04:51:52;;;;;;;;;;;;;;;1.28;79.71;100743.66;5039429;28;19931;-77
2024/02/17 04:54:19;;;;;;;;;;;;;;;1.27;79.67;100759.94;5039613;28;19925;-76
2024/02/17 04:56:45;;;;;;;;;;;;;;;1.28;79.65;100758.22;5039113;28;20370;-76
2024/02/17 04:59:12;;;;;;;;;;;;;;;1.25;79.88;100766.81;5039282;28;19932;-77
2024/02/17 05:01:42;;;;;;;;;;;;;;;1.25;79.64;100769.38;5039092;28;19932;-77
2024/02/17 05:04:08;;;;;;;;;;;;;;;1.25;79.80;100772.81;5039305;28;19963;-76
2024/02/17 05:06:35;;;;;;;;;;;;;;;1.24;79.64;100775.34;5039138;28;19935;-76
2024/02/17 05:09:02;;;;;;;;;;;;;;;1.23;79.74;100778.78;5036871;28;19925;-77
2024/02/17 05:11:29;;;;;;;;;;;;;;;1.23;79.55;100786.53;5036069;28;19932;-77
2024/02/17 05:13:56;;;;;;;;;;;;;;;1.22;79.69;100795.97;5035916;28;19931;-77
2024/02/17 05:16:22;;;;;;;;;;;;;;;1.22;79.48;100807.97;5036169;28;19925;-76
2024/02/17 05:18:50;;;;;;;;;;;;;;;1.22;79.87;100815.69;5035927;28;19932;-76
2024/02/17 05:21:17;;;;;;;;;;;;;;;1.20;79.78;100823.41;5035954;28;19925;-76
2024/02/17 05:23:44;;;;;;;;;;;;;;;1.19;79.69;100819.13;5035834;28;19932;-77
2024/02/17 05:26:10;;;;;;;;;;;;;;;1.18;79.68;100831.97;5035699;28;19931;-76
2024/02/17 05:28:37;;;;;;;;;;;;;;;1.19;79.75;100831.09;5035862;28;19925;-76
2024/02/17 05:31:04;;;;;;;;;;;;;;;1.18;79.61;100845.72;5035626;28;19931;-76
2024/02/17 05:33:30;;;;;;;;;;;;;;;1.18;79.94;100855.16;5035730;28;19936;-77
2024/02/17 05:35:58;;;;;;;;;;;;;;;1.18;79.90;100855.16;5035042;28;19925;-76
2024/02/17 05:38:26;;;;;;;;;;;;;;;1.17;79.98;100858.59;5033821;28;19939;-77
2024/02/17 05:40:52;;;;;;;;;;;;;;;1.16;79.88;100864.56;5033715;28;20021;-77
2024/02/17 05:43:19;;;;;;;;;;;;;;;1.16;79.84;100872.28;5033640;28;19933;-77
2024/02/17 05:45:47;;;;;;;;;;;;;;;1.15;79.71;100875.72;5033808;28;19929;-76
2024/02/17 05:48:14;;;;;;;;;;;;;;;1.14;79.79;100887.75;5033548;28;19929;-76
2024/02/17 05:50:40;;;;;;;;;;;;;;;1.14;79.68;100886.88;5033418;28;19929;-77
2024/02/17 05:53:08;;;;;;;;;;;;;;;1.15;79.56;100898.91;5033565;28;19925;-76
2024/02/17 05:55:35;;;;;;;;;;;;;;;1.14;79.70;100908.34;5033360;28;19933;-77
2024/02/17 05:58:01;;;;;;;;;;;;;;;1.13;79.83;100905.75;5033416;28;20007;-76
2024/02/17 06:00:29;;;;;;;;;;;;;;;1.13;79.58;100921.19;5033574;28;19925;-76
2024/02/17 06:02:55;;;;;;;;;;;;;;;1.12;79.62;100929.78;5033498;28;19935;-76
2024/02/17 06:05:22;;;;;;;;;;;;;;;1.12;79.94;100940.09;5033188;28;20073;-76
2024/02/17 06:07:48;;;;;;;;;;;;;;;1.10;79.95;100942.63;5033283;28;19925;-76
2024/02/17 06:10:16;;;;;;;;;;;;;;;1.11;79.93;100954.69;5032954;28;19925;-76
2024/02/17 06:12:43;;;;;;;;;;;;;;;1.10;79.65;100952.94;5032472;28;20004;-76
2024/02/17 06:15:10;;;;;;;;;;;;;;;1.10;79.68;100970.97;5030942;28;19925;-76
2024/02/17 06:17:42;;;;;;;;;;;;;;;1.10;79.75;100980.41;5032936;28;20003;-77
2024/02/17 06:22:54;;;;;;;;;;;;;;;1.09;79.56;100986.41;5032943;28;19939;-73
2024/02/17 06:25:22;;;;;;;;;;;;;;;1.08;80.07;100994.97;5032596;28;19940;-73
2024/02/17 06:27:48;;;;;;;;;;;;;;;1.08;79.66;101000.13;5032724;28;19925;-73
2024/02/17 06:30:15;;;;;;;;;;;;;;;1.07;79.66;101006.13;5032455;28;19925;-72
2024/02/17 06:32:42;;;;;;;;;;;;;;;1.07;79.85;101019.00;5032515;28;19939;-73
2024/02/17 06:35:09;;;;;;;;;;;;;;;1.07;80.05;101019.00;5032295;28;19932;-73
2024/02/17 06:37:36;;;;;;;;;;;;;;;1.07;79.60;101034.47;5032337;28;19925;-73
2024/02/17 06:40:02;;;;;;;;;;;;;;;1.07;79.69;101050.78;5032707;28;19932;-73
2024/02/17 06:42:31;;;;;;;;;;;;;;;1.07;80.07;101052.50;5032554;28;19925;-73
2024/02/17 06:44:57;;;;;;;;;;;;;;;1.07;80.04;101058.53;5032455;28;20007;-74
2024/02/17 06:47:24;;;;;;;;;;;;;;;1.07;79.91;101063.69;5031970;28;20290;-73
2024/02/17 06:49:50;;;;;;;;;;;;;;;1.07;79.73;101065.38;5032043;28;19933;-73
2024/02/17 06:52:17;;;;;;;;;;;;;;;1.05;79.99;101073.09;5032241;28;20286;-73
2024/02/17 06:54:44;;;;;;;;;;;;;;;1.06;79.70;101073.97;5032223;28;19962;-74
2024/02/17 06:57:10;;;;;;;;;;;;;;;1.06;79.87;101089.44;5032012;28;19925;-74
2024/02/17 06:59:38;;;;;;;;;;;;;;;1.05;79.78;101100.56;5032211;28;20316;-74
2024/02/17 07:02:05;;;;;;;;;;;;;;;1.06;79.83;101102.31;5031785;28;19925;-74
2024/02/17 07:04:31;;;;;;;;;;;;;;;1.05;79.78;101105.72;5029153;28;19935;-74
2024/02/17 07:06:58;;;;;;;;;;;;;;;1.05;79.83;101116.91;5032192;28;19955;-74
2024/02/17 07:09:25;;;;;;;;;;;;;;;1.05;79.96;101119.50;5031957;28;20382;-74
2024/02/17 07:11:51;;;;;;;;;;;;;;;1.05;79.79;101126.31;5032191;28;19940;-74
2024/02/17 07:14:18;;;;;;;;;;;;;;;1.05;79.90;101123.75;5031569;28;19939;-74
2024/02/17 07:16:46;;;;;;;;;;;;;;;1.05;79.74;101124.63;5031801;28;19932;-73
2024/02/17 07:19:12;;;;;;;;;;;;;;;1.06;79.82;101135.81;5031527;28;19926;-73
2024/02/17 07:21:39;;;;;;;;;;;;;;;1.05;79.65;101134.94;5031856;28;20404;-74
2024/02/17 07:24:06;;;;;;;;;;;;;;;1.06;79.75;101143.53;5031566;28;19925;-73
2024/02/17 07:26:33;;;;;;;;;;;;;;;1.06;79.59;101151.28;5031709;28;19931;-74
2024/02/17 07:28:59;;;;;;;;;;;;;;;1.06;79.69;101151.28;5028622;28;20403;-75
2024/02/17 07:31:29;;;;;;;;;;;;;;;1.06;79.79;101167.59;5031470;28;19933;-75
2024/02/17 07:33:57;;;;;;;;;;;;;;;1.05;79.54;101173.59;5031697;28;19925;-76
2024/02/17 07:36:25;;;;;;;;;;;;;;;1.05;79.73;101181.34;5031460;28;19937;-75
2024/02/17 07:38:52;;;;;;;;;;;;;;;1.05;79.59;101180.44;5031703;28;19933;-75
2024/02/17 07:41:19;;;;;;;;;;;;;;;1.05;79.95;101185.59;5031632;28;19931;-75
2024/02/17 07:43:46;;;;;;;;;;;;;;;1.06;79.98;101192.50;5031617;28;20309;-75
2024/02/17 07:46:13;;;;;;;;;;;;;;;1.05;79.84;101201.94;5031353;28;19932;-75
2024/02/17 07:48:39;;;;;;;;;;;;;;;1.06;79.73;101208.81;5031335;28;20012;-76
2024/02/17 07:51:07;;;;;;;;;;;;;;;1.06;79.53;101223.44;5031135;28;19925;-75
2024/02/17 07:53:34;;;;;;;;;;;;;;;1.06;79.91;101215.69;5031114;28;19925;-75
2024/02/17 07:56:00;;;;;;;;;;;;;;;1.07;79.84;101214.84;5031527;28;19925;-75
2024/02/17 07:58:27;;;;;;;;;;;;;;;1.06;79.86;101218.28;5031383;28;19939;-75
2024/02/17 08:00:53;;;;;;;;;;;;;;;1.07;79.49;101225.16;5031446;28;20330;-75
2024/02/17 08:03:20;;;;;;;;;;;;;;;1.07;79.66;101230.31;5031219;28;19933;-74
2024/02/17 08:05:47;;;;;;;;;;;;;;;1.08;79.85;101234.63;5031068;28;19932;-74
2024/02/17 08:08:15;;;;;;;;;;;;;;;1.07;79.77;101243.19;5031263;28;19947;-74
2024/02/17 08:10:41;;;;;;;;;;;;;;;1.06;79.32;101242.31;5031231;28;19933;-74
2024/02/17 08:13:08;;;;;;;;;;;;;;;1.07;79.79;101246.63;5028792;28;19968;-75
2024/02/17 08:15:35;;;;;;;;;;;;;;;1.07;79.42;101256.06;5031046;28;19929;-74
2024/02/17 08:18:01;;;;;;;;;;;;;;;1.07;79.81;101256.06;5031180;28;20378;-74
2024/02/17 08:20:28;;;;;;;;;;;;;;;1.07;79.72;101261.22;5031121;28;19972;-74
2024/02/17 08:22:54;;;;;;;;;;;;;;;1.06;79.37;101268.09;5031084;28;19929;-73
2024/02/17 08:25:24;;;;;;;;;;;;;;;1.06;79.21;101280.13;5030941;28;19933;-74
2024/02/17 08:27:50;;;;;;;;;;;;;;;1.05;79.75;101278.34;5030738;28;19933;-74
2024/02/17 08:30:17;;;;;;;;;;;;;;;1.05;79.33;101299.88;5030892;28;19947;-74
2024/02/17 08:32:43;;;;;;;;;;;;;;;1.06;79.44;101305.88;5030869;28;19925;-75
2024/02/17 08:35:10;;;;;;;;;;;;;;;1.06;79.22;101313.63;5030771;28;20396;-74
2024/02/17 08:37:37;;;;;;;;;;;;;;;1.06;79.38;101308.47;5031050;28;19925;-72
2024/02/17 08:40:05;;;;;;;;;;;;;;;1.05;79.34;101310.16;5030881;28;20436;-76
2024/02/17 08:42:33;;;;;;;;;;;;;;;1.06;79.14;101323.91;5028072;28;19932;-75
2024/02/17 08:44:59;;;;;;;;;;;;;;;1.05;79.34;101325.63;5030517;28;19925;-75
2024/02/17 08:47:26;;;;;;;;;;;;;;;1.06;79.27;101331.66;5034628;28;20390;-75
2024/02/17 08:49:52;;;;;;;;;;;;;;;1.06;79.25;101334.22;5034574;28;19957;-75
2024/02/17 08:52:19;;;;;;;;;;;;;;;1.05;78.94;101341.09;5034719;28;19933;-81
2024/02/17 08:54:45;;;;;;;;;;;;;;;1.07;79.20;101351.41;5036387;28;20405;-80
2024/02/17 08:57:12;;;;;;;;;;;;;;;1.07;79.10;101354.00;5035654;28;19956;-79
2024/02/17 08:59:40;;;;;;;;;;;;;;;1.07;79.44;101354.88;5035716;28;19932;-80
2024/02/17 09:02:07;;;;;;;;;;;;;;;1.08;79.29;101358.31;5035784;28;19935;-81
2024/02/17 09:04:34;;;;;;;;;;;;;;;1.07;79.20;101365.16;5035856;28;19929;-81
2024/02/17 09:07:00;;;;;;;;;;;;;;;1.07;79.37;101374.63;5035916;28;19929;-81
2024/02/17 09:09:27;;;;;;;;;;;;;;;1.08;79.46;101371.19;5035363;28;19925;-82
2024/02/17 09:11:54;;;;;;;;;;;;;;;1.09;79.18;101384.13;5035452;28;20024;-81
2024/02/17 09:14:21;;;;;;;;;;;;;;;1.08;79.12;101382.41;5035182;28;20405;-82
2024/02/17 09:16:49;;;;;;;;;;;;;;;1.09;79.01;101385.84;5035310;28;19925;-82
2024/02/17 09:19:15;;;;;;;;;;;;;;;1.09;79.21;101391.88;5035423;28;20019;-81
2024/02/17 09:21:42;;;;;;;;;;;;;;;1.10;79.11;101408.19;5036236;28;19929;-82
2024/02/17 09:24:09;;;;;;;;;;;;;;;1.10;79.09;101414.22;5036372;28;19925;-83
2024/02/17 09:26:36;;;;;;;;;;;;;;;1.12;79.44;101409.13;5035337;28;19935;-82
2024/02/17 09:29:03;;;;;;;;;;;;;;;1.12;79.33;101424.59;5035414;28;19929;-79
2024/02/17 09:31:29;;;;;;;;;;;;;;;1.13;78.76;101421.16;5034990;28;20268;-78
2024/02/17 09:33:57;;;;;;;;;;;;;;;1.14;78.86;101422.94;5034425;28;19925;-79
2024/02/17 09:36:25;;;;;;;;;;;;;;;1.14;79.05;101434.09;5034054;28;19939;-79
2024/02/17 09:38:52;;;;;;;;;;;;;;;1.16;78.95;101434.13;5034435;28;19937;-79
2024/02/17 09:41:19;;;;;;;;;;;;;;;1.17;79.14;101438.47;5034093;28;19933;-79
2024/02/17 09:43:45;;;;;;;;;;;;;;;1.18;79.21;101442.78;5034136;28;19932;-79
2024/02/17 09:46:13;;;;;;;;;;;;;;;1.19;78.99;101459.97;5033825;28;20379;-79
2024/02/17 09:48:40;;;;;;;;;;;;;;;1.22;78.91;101462.63;5033627;28;19925;-76
2024/02/17 09:51:08;;;;;;;;;;;;;;;1.24;78.88;101466.13;5033545;28;19925;-78
2024/02/17 09:53:36;;;;;;;;;;;;;;;1.25;79.05;101473.06;5033629;28;19935;-77
2024/02/17 09:56:03;;;;;;;;;;;;;;;1.27;78.82;101489.41;5033853;28;20035;-78
2024/02/17 09:58:30;;;;;;;;;;;;;;;1.29;78.76;101486.88;5033988;28;19932;-78
2024/02/17 10:00:57;;;;;;;;;;;;;;;1.30;78.69;101498.94;5033979;28;19931;-78
2024/02/17 10:03:25;;;;;;;;;;;;;;;1.32;78.87;101505.03;5033784;28;20012;-77
2024/02/17 10:05:52;;;;;;;;;;;;;;;1.33;79.09;101514.50;5033934;28;19933;-77
2024/02/17 10:08:20;;;;;;;;;;;;;;;1.36;78.69;101519.72;5033878;28;19929;-78
2024/02/17 10:10:46;;;;;;;;;;;;;;;1.37;78.78;101524.94;5033937;28;19933;-79
2024/02/17 10:13:15;;;;;;;;;;;;;;;1.37;78.48;101530.09;5032455;28;20027;-78
2024/02/17 10:15:43;;;;;;;;;;;;;;;1.39;78.29;101538.75;5033867;28;20367;-78
2024/02/17 10:18:09;;;;;;;;;;;;;;;1.41;78.33;101554.25;5033811;28;19969;-78
2024/02/17 10:20:36;;;;;;;;;;;;;;;1.42;78.46;101556.88;5034145;28;19932;-78
2024/02/17 10:23:03;;;;;;;;;;;;;;;1.43;77.98;101561.19;5033463;28;19996;-78
2024/02/17 10:25:34;;;;;;;;;;;;;;;1.45;78.33;101569.84;5034014;28;19925;-78
2024/02/17 10:28:02;;;;;;;;;;;;;;;1.48;78.20;101577.66;5030196;28;20404;-75
2024/02/17 10:30:29;;;;;;;;;;;;;;;1.51;77.76;101588.91;5032976;28;19932;-75
2024/02/17 10:32:56;;;;;;;;;;;;;;;1.51;78.11;101588.91;5032846;28;19932;-75
2024/02/17 10:35:22;;;;;;;;;;;;;;;1.53;77.65;101608.72;5032547;28;19933;-74
2024/02/17 10:37:49;;;;;;;;;;;;;;;1.55;77.83;101608.78;5032463;28;20275;-75
2024/02/17 10:40:17;;;;;;;;;;;;;;;1.56;77.50;101603.69;5032320;28;19929;-75
2024/02/17 10:42:46;;;;;;;;;;;;;;;1.58;77.53;101614.88;5032676;28;19929;-75
2024/02/17 10:45:13;;;;;;;;;;;;;;;1.61;77.62;101627.00;5032214;28;19929;-75
2024/02/17 10:47:40;;;;;;;;;;;;;;;1.61;77.97;101635.59;5032352;28;19932;-75
2024/02/17 10:50:12;;;;;;;;;;;;;;;1.63;77.36;101635.66;5031987;28;19925;-75
2024/02/17 10:52:42;;;;;;;;;;;;;;;1.65;77.23;101644.34;5032236;28;20371;-75
2024/02/17 10:55:11;;;;;;;;;;;;;;;1.66;77.43;101657.25;5032069;28;19931;-75
2024/02/17 10:57:40;;;;;;;;;;;;;;;1.68;77.35;101667.63;5032511;28;20281;-78
2024/02/17 11:00:09;;;;;;;;;;;;;;;1.69;76.77;101671.94;5032956;28;19932;-79
2024/02/17 11:02:36;;;;;;;;;;;;;;;1.71;77.06;101680.63;5032844;28;19931;-78
2024/02/17 11:05:04;;;;;;;;;;;;;;;1.72;76.82;101681.47;5032841;28;20456;-79
2024/02/17 11:07:32;;;;;;;;;;;;;;;1.72;76.73;101690.09;5028884;28;19925;-79
2024/02/17 11:10:05;;;;;;;;;;;;;;;1.74;77.01;101691.03;5033277;28;19931;-79
2024/02/17 11:12:33;;;;;;;;;;;;;;;1.77;77.05;101711.75;5030168;28;19925;-80
2024/02/17 11:15:00;;;;;;;;;;;;;;;1.77;76.72;101706.59;5029983;28;19925;-80
2024/02/17 11:17:34;;;;;;;;;;;;;;;1.79;76.73;101709.19;5032445;28;19931;-80
2024/02/17 11:20:06;;;;;;;;;;;;;;;1.80;76.33;101719.56;5029726;28;19929;-78
2024/02/17 11:22:34;;;;;;;;;;;;;;;1.81;76.25;101721.31;5030068;28;19929;-79
2024/02/17 11:25:01;;;;;;;;;;;;;;;1.82;76.33;101727.38;5032576;28;20302;-80
2024/02/17 11:27:27;;;;;;;;;;;;;;;1.83;75.73;101740.28;5032428;28;19925;-80
2024/02/17 11:29:58;;;;;;;;;;;;;;;1.84;75.79;101759.22;5032651;28;19937;-80
2024/02/17 11:32:26;;;;;;;;;;;;;;;1.84;75.77;101754.94;5032197;28;19933;-80
2024/02/17 11:34:54;;;;;;;;;;;;;;;1.86;75.75;101763.59;5032330;28;19940;-79
2024/02/17 11:37:22;;;;;;;;;;;;;;;1.87;75.25;101773.09;5031961;28;19933;-79
2024/02/17 11:39:49;;;;;;;;;;;;;;;1.88;75.49;101780.03;5031477;28;20389;-75
2024/02/17 11:42:16;;;;;;;;;;;;;;;1.88;75.40;101782.59;5031319;28;19925;-75
2024/02/17 11:44:45;;;;;;;;;;;;;;;1.90;75.08;101791.28;5031314;28;19925;-75
2024/02/17 11:47:12;;;;;;;;;;;;;;;1.91;75.01;101802.47;5031268;28;19925;-76
2024/02/17 11:49:38;;;;;;;;;;;;;;;1.91;75.05;101810.19;5031375;28;19931;-75
2024/02/17 11:52:07;;;;;;;;;;;;;;;1.93;75.38;101813.69;5031267;28;19925;-75
2024/02/17 11:54:34;;;;;;;;;;;;;;;1.93;74.93;101812.00;5028753;28;19960;-75
2024/02/17 11:57:01;;;;;;;;;;;;;;;1.94;74.86;101828.34;5031575;28;19925;-75
2024/02/17 11:59:28;;;;;;;;;;;;;;;1.95;74.70;101839.56;5031028;28;19932;-75
2024/02/17 12:01:55;;;;;;;;;;;;;;;1.96;74.76;101857.69;5031305;28;19942;-75
2024/02/17 12:04:21;;;;;;;;;;;;;;;1.96;74.37;101856.78;5031349;28;20008;-75
2024/02/17 12:06:48;;;;;;;;;;;;;;;1.97;74.08;101845.66;5031379;28;19932;-76
2024/02/17 12:09:16;;;;;;;;;;;;;;;1.97;74.07;101854.25;5031687;28;19925;-79
2024/02/17 12:11:43;;;;;;;;;;;;;;;1.98;74.12;101852.53;5030968;28;19940;-80
2024/02/17 12:14:10;;;;;;;;;;;;;;;2.00;73.97;101858.63;5031675;28;19932;-80
2024/02/17 12:16:37;;;;;;;;;;;;;;;2.00;73.84;101868.97;5032011;28;20285;-79
2024/02/17 12:19:08;;;;;;;;;;;;;;;2.01;73.61;101875.88;5034392;28;20008;-79
2024/02/17 12:21:35;;;;;;;;;;;;;;;2.00;73.66;101884.44;5032631;28;19932;-80
2024/02/17 12:25:20;;;;;;;0.00;0.00;;;;;;;2.00;73.21;101884.44;5064514;27;20143;-74
2024/02/17 12:27:48;;;;;;;0.00;0.00;;;;;;;1.99;73.45;101882.69;4787447;28;20056;-75
2024/02/17 12:39:38;;;;;;;2.67;0.77;;;;;;;10.83;59.49;101865.81;5092407;27;20365;-79
2024/02/17 12:45:01;;;;;;;4.17;0.80;;;;;;;15.47;43.77;101888.47;5139460;27;20289;-71
2024/02/17 12:56:32;;;;;;;0.20;0.10;;;;;;;12.85;50.30;101913.69;5129082;27;20936;-67
2024/02/17 12:59:00;;;;;;;1.10;0.17;;;;;;;11.31;50.63;101932.75;5017360;28;20297;-70
2024/02/17 13:01:27;;;;;;;0.50;0.20;;;;;;;10.01;51.81;101946.34;5048315;28;20621;-70
2024/02/17 13:03:54;;;;;;;0.20;0.20;;;;;;;8.99;52.44;101961.06;5048070;28;20668;-70
2024/02/17 13:06:21;;;;;;;0.23;0.20;;;;;;;8.12;53.67;101961.53;5047923;28;20740;-70
2024/02/17 13:08:48;;;;;;;0.23;0.23;;;;;;;7.40;54.00;101978.31;5047706;28;20652;-69